Time;durP1;ratioP1;P1;durP2;ratioP2;P2;SDS_P1;SDS_P2;PMS_P1;PMS_P2;Temp;Humidity;BMP_temperature;BMP_pressure;BME280_temperature;BME280_humidity;BME280_pressure;Samples;Min_cycle;Max_cycle;Signal;HPM_P1;HPM_P2
2021/10/09 00:01:14;;;;;;;51.43;24.00;;;4.40;99.90;;;;;;5273815;28;20204;-67
2021/10/09 00:03:46;;;;;;;46.23;24.97;;;4.40;99.90;;;;;;5273110;28;20250;-70
2021/10/09 00:06:19;;;;;;;49.97;24.97;;;4.30;99.90;;;;;;5273347;28;20240;-66
2021/10/09 00:08:51;;;;;;;50.60;25.80;;;4.30;99.90;;;;;;5272334;28;20220;-65
2021/10/09 00:11:37;;;;;;;47.10;25.17;;;4.20;99.90;;;;;;5272590;28;20200;-67
2021/10/09 00:14:12;;;;;;;50.97;25.67;;;4.20;99.90;;;;;;5272692;28;20317;-70
2021/10/09 00:16:49;;;;;;;51.80;25.53;;;4.20;99.90;;;;;;5273695;28;20223;-66
2021/10/09 00:19:21;;;;;;;54.53;25.13;;;4.10;99.90;;;;;;5273282;28;20228;-66
2021/10/09 00:21:55;;;;;;;50.47;25.90;;;4.10;99.90;;;;;;5273125;28;20211;-68
2021/10/09 00:24:27;;;;;;;48.30;24.17;;;4.10;99.90;;;;;;5272974;28;20235;-67
2021/10/09 00:26:59;;;;;;;44.70;22.37;;;4.10;99.90;;;;;;5273450;28;20200;-67
2021/10/09 00:29:33;;;;;;;43.73;22.33;;;4.00;99.90;;;;;;5273405;28;20220;-66
2021/10/09 00:32:08;;;;;;;42.70;22.37;;;4.00;99.90;;;;;;5273000;28;20200;-67
2021/10/09 00:34:42;;;;;;;36.77;20.23;;;4.00;99.90;;;;;;5273329;28;20546;-67
2021/10/09 00:37:14;;;;;;;39.50;20.83;;;3.90;99.90;;;;;;5272095;28;20207;-68
2021/10/09 00:39:46;;;;;;;39.43;19.93;;;3.90;99.90;;;;;;5273471;28;20227;-65
2021/10/09 00:42:18;;;;;;;35.17;18.67;;;3.90;99.90;;;;;;5272218;28;20204;-66
2021/10/09 00:44:50;;;;;;;35.10;18.10;;;3.90;99.90;;;;;;5276094;28;20243;-66
2021/10/09 00:47:24;;;;;;;33.67;18.03;;;3.90;99.90;;;;;;5273570;28;20193;-67
2021/10/09 00:49:56;;;;;;;37.90;17.67;;;3.90;99.90;;;;;;5273353;28;20544;-68
2021/10/09 00:52:30;;;;;;;36.90;17.57;;;3.80;99.90;;;;;;5272485;28;20207;-69
2021/10/09 00:55:05;;;;;;;33.27;16.80;;;3.80;99.90;;;;;;5274390;28;20227;-69
2021/10/09 00:57:42;;;;;;;33.10;16.77;;;3.80;99.90;;;;;;5273156;28;20200;-66
2021/10/09 01:00:14;;;;;;;31.33;17.60;;;3.80;99.90;;;;;;5271467;28;20234;-73
2021/10/09 01:02:46;;;;;;;31.30;17.13;;;3.80;99.90;;;;;;5272580;28;20228;-69
2021/10/09 01:05:20;;;;;;;30.63;17.07;;;3.80;99.90;;;;;;5271937;28;20236;-68
2021/10/09 01:07:52;;;;;;;30.30;16.07;;;3.80;99.90;;;;;;5271717;28;20200;-67
2021/10/09 01:10:24;;;;;;;35.37;16.97;;;3.80;99.90;;;;;;5271088;28;20523;-66
2021/10/09 01:12:58;;;;;;;33.37;17.27;;;3.80;99.90;;;;;;5272217;28;20208;-68
2021/10/09 01:15:36;;;;;;;33.17;16.63;;;3.80;99.90;;;;;;5271104;28;20588;-67
2021/10/09 01:18:14;;;;;;;32.43;16.87;;;3.70;99.90;;;;;;5271802;28;20203;-69
2021/10/09 01:20:52;;;;;;;29.13;15.03;;;3.70;99.90;;;;;;5272000;28;20266;-66
2021/10/09 01:23:24;;;;;;;31.77;16.30;;;3.70;99.90;;;;;;5270957;28;20227;-67
2021/10/09 01:25:59;;;;;;;30.73;15.70;;;3.70;99.90;;;;;;5271512;28;20239;-70
2021/10/09 01:28:31;;;;;;;34.13;17.23;;;3.70;99.90;;;;;;5270685;28;20199;-67
2021/10/09 01:31:03;;;;;;;35.77;18.30;;;3.70;99.90;;;;;;5271656;28;20239;-68
2021/10/09 01:33:37;;;;;;;33.57;16.90;;;3.70;99.90;;;;;;5271941;28;20609;-67
2021/10/09 01:36:10;;;;;;;30.17;17.37;;;3.80;99.90;;;;;;5271465;28;20655;-72
2021/10/09 01:38:51;;;;;;;32.20;16.37;;;3.80;99.90;;;;;;5271440;28;20218;-68
2021/10/09 01:41:28;;;;;;;30.40;16.47;;;3.80;99.90;;;;;;5270587;28;20228;-72
2021/10/09 01:44:03;;;;;;;31.13;16.87;;;3.80;99.90;;;;;;5271939;28;20211;-70
2021/10/09 01:46:38;;;;;;;29.30;16.30;;;3.80;99.90;;;;;;5271491;28;20224;-70
2021/10/09 01:49:12;;;;;;;37.83;16.70;;;3.80;99.90;;;;;;5270370;28;20199;-67
2021/10/09 01:51:47;;;;;;;33.93;17.50;;;3.80;99.90;;;;;;5270982;28;20235;-68
2021/10/09 01:54:19;;;;;;;38.57;18.80;;;3.80;99.90;;;;;;5271763;28;20204;-67
2021/10/09 01:56:50;;;;;;;35.77;18.80;;;3.80;99.90;;;;;;5271210;28;20228;-66
2021/10/09 01:59:25;;;;;;;37.27;20.63;;;3.70;99.90;;;;;;5271394;28;20203;-68
2021/10/09 02:02:00;;;;;;;41.17;21.57;;;3.70;99.90;;;;;;5271323;28;20235;-67
2021/10/09 02:04:33;;;;;;;40.37;21.63;;;3.60;99.90;;;;;;5270155;28;20227;-67
2021/10/09 02:07:14;;;;;;;44.80;22.40;;;3.60;99.90;;;;;;5271416;28;20224;-68
2021/10/09 02:09:46;;;;;;;41.87;21.80;;;3.60;99.90;;;;;;5271458;28;20204;-68
2021/10/09 02:12:23;;;;;;;46.67;23.77;;;3.50;99.90;;;;;;5270261;28;20651;-67
2021/10/09 02:15:02;;;;;;;49.63;25.37;;;3.50;99.90;;;;;;5270984;28;20212;-70
2021/10/09 02:25:57;;;;;;;61.63;28.47;;;3.30;99.90;;;;;;5270715;28;20192;-65
2021/10/09 02:28:31;;;;;;;54.10;28.23;;;3.30;99.90;;;;;;5271059;28;20228;-66
2021/10/09 02:31:06;;;;;;;58.03;28.97;;;3.30;99.90;;;;;;5270981;28;20555;-70
2021/10/09 02:33:37;;;;;;;60.43;29.70;;;3.20;99.90;;;;;;5270644;28;20223;-69
2021/10/09 02:36:11;;;;;;;54.13;29.83;;;3.20;99.90;;;;;;5270939;28;20554;-69
2021/10/09 02:38:45;;;;;;;63.67;30.67;;;3.20;99.90;;;;;;5270895;28;20228;-66
2021/10/09 02:41:17;;;;;;;57.53;31.10;;;3.10;99.90;;;;;;5269438;28;20200;-70
2021/10/09 02:43:49;;;;;;;59.97;30.33;;;3.10;99.90;;;;;;5270157;28;20236;-71
2021/10/09 02:46:21;;;;;;;61.10;31.40;;;3.00;99.90;;;;;;5270985;28;20200;-68
2021/10/09 02:48:52;;;;;;;67.03;32.27;;;3.00;99.90;;;;;;5270195;28;20228;-68
2021/10/09 02:51:24;;;;;;;63.90;32.17;;;2.90;99.90;;;;;;5269698;28;20218;-69
2021/10/09 02:53:56;;;;;;;58.27;30.60;;;2.90;99.90;;;;;;5270384;28;20556;-69
2021/10/09 02:56:28;;;;;;;58.13;30.80;;;2.90;99.90;;;;;;5269352;28;20550;-70
2021/10/09 02:59:00;;;;;;;58.17;30.53;;;2.90;99.90;;;;;;5270916;28;20231;-68
2021/10/09 03:01:33;;;;;;;61.80;29.93;;;2.90;99.90;;;;;;5272108;28;20211;-69
2021/10/09 03:04:07;;;;;;;66.77;31.90;;;2.80;99.90;;;;;;5270226;28;20240;-70
2021/10/09 03:06:41;;;;;;;73.20;33.80;;;2.90;99.90;;;;;;5269156;28;20508;-69
2021/10/09 03:09:13;;;;;;;62.47;33.37;;;2.90;99.90;;;;;;5269448;28;20239;-68
2021/10/09 03:11:45;;;;;;;60.90;33.03;;;2.90;99.90;;;;;;5270032;28;20203;-66
2021/10/09 03:14:17;;;;;;;61.53;31.93;;;2.90;99.90;;;;;;5270623;28;20228;-71
2021/10/09 03:16:52;;;;;;;63.53;32.00;;;2.90;99.90;;;;;;5273578;28;20204;-69
2021/10/09 03:19:24;;;;;;;61.03;32.47;;;2.90;99.90;;;;;;5273801;28;20232;-70
2021/10/09 03:21:56;;;;;;;64.83;31.87;;;2.90;99.90;;;;;;5274325;28;20493;-68
2021/10/09 03:24:28;;;;;;;57.43;31.40;;;2.90;99.90;;;;;;5273942;28;20662;-71
2021/10/09 03:27:00;;;;;;;62.33;31.90;;;2.80;99.90;;;;;;5274669;28;20200;-68
2021/10/09 03:29:32;;;;;;;61.33;31.47;;;2.80;99.90;;;;;;5274338;28;20228;-70
2021/10/09 03:32:04;;;;;;;63.50;31.93;;;2.70;99.90;;;;;;5274289;28;20211;-68
2021/10/09 03:34:38;;;;;;;62.63;31.07;;;2.70;99.90;;;;;;5256160;28;20204;-71
2021/10/09 03:37:11;;;;;;;64.80;32.87;;;2.60;99.90;;;;;;5274200;28;20203;-71
2021/10/09 03:39:46;;;;;;;56.10;30.23;;;2.60;99.90;;;;;;5272553;28;20232;-68
2021/10/09 03:42:27;;;;;;;60.93;30.97;;;2.60;99.90;;;;;;5273889;28;20657;-68
2021/10/09 03:45:06;;;;;;;64.73;29.90;;;2.50;99.90;;;;;;5273734;28;20231;-70
2021/10/09 03:53:04;;;;;;;58.60;30.07;;;2.50;99.90;;;;;;5274111;28;20192;-72
2021/10/09 03:55:35;;;;;;;59.07;30.57;;;2.50;99.90;;;;;;5273840;28;20228;-69
2021/10/09 03:58:07;;;;;;;61.27;32.17;;;2.50;99.90;;;;;;5273582;28;20200;-69
2021/10/09 04:00:39;;;;;;;62.83;31.77;;;2.50;99.90;;;;;;5273400;28;20232;-69
2021/10/09 04:03:11;;;;;;;65.13;32.43;;;2.50;99.90;;;;;;5273910;28;20295;-70
2021/10/09 04:05:43;;;;;;;59.30;32.20;;;2.50;99.90;;;;;;5273136;28;20244;-71
2021/10/09 04:08:16;;;;;;;60.47;30.80;;;2.40;99.90;;;;;;5273286;28;20204;-68
2021/10/09 04:10:48;;;;;;;59.10;31.67;;;2.50;99.90;;;;;;5273555;28;20225;-69
2021/10/09 04:13:19;;;;;;;61.87;30.57;;;2.40;99.90;;;;;;5273485;28;20200;-69
2021/10/09 04:15:51;;;;;;;59.43;31.53;;;2.40;99.90;;;;;;5273355;28;20224;-69
2021/10/09 04:18:25;;;;;;;56.47;31.80;;;2.40;99.90;;;;;;5273270;28;20200;-72
2021/10/09 04:20:58;;;;;;;63.27;32.57;;;2.40;99.90;;;;;;5272902;28;20697;-68
2021/10/09 04:23:30;;;;;;;61.50;32.53;;;2.40;99.90;;;;;;5273350;28;20654;-67
2021/10/09 04:26:02;;;;;;;56.00;31.53;;;2.40;99.90;;;;;;5272966;28;20220;-71
2021/10/09 04:28:34;;;;;;;59.33;30.17;;;2.40;99.90;;;;;;5272719;28;20536;-69
2021/10/09 04:31:06;;;;;;;51.23;30.13;;;2.30;99.90;;;;;;5271703;28;20224;-70
2021/10/09 04:33:38;;;;;;;50.67;28.60;;;2.30;99.90;;;;;;5273579;28;20208;-72
2021/10/09 04:36:15;;;;;;;60.47;29.50;;;2.30;99.90;;;;;;5272885;28;20238;-72
2021/10/09 04:38:49;;;;;;;49.40;27.83;;;2.30;99.90;;;;;;5272802;28;20523;-71
2021/10/09 04:41:21;;;;;;;50.77;28.47;;;2.20;99.90;;;;;;5272113;28;20228;-72
2021/10/09 04:43:56;;;;;;;49.80;28.47;;;2.20;99.90;;;;;;5273180;28;20223;-71
2021/10/09 04:46:27;;;;;;;52.40;27.57;;;2.30;99.90;;;;;;5272603;28;20241;-68
2021/10/09 04:49:00;;;;;;;60.43;29.60;;;2.30;99.90;;;;;;5273357;28;20215;-72
2021/10/09 04:51:32;;;;;;;56.60;30.37;;;2.20;99.90;;;;;;5274639;28;20570;-71
2021/10/09 04:54:09;;;;;;;61.83;31.40;;;2.20;99.90;;;;;;5272108;28;20208;-72
2021/10/09 04:56:40;;;;;;;62.97;32.97;;;2.30;99.90;;;;;;5272807;28;20218;-69
2021/10/09 04:59:12;;;;;;;60.67;32.03;;;2.30;99.90;;;;;;5271666;28;20242;-70
2021/10/09 05:01:44;;;;;;;66.70;34.17;;;2.30;99.90;;;;;;5275258;28;20247;-71
2021/10/09 05:04:19;;;;;;;60.83;32.87;;;2.30;99.90;;;;;;5272734;28;20224;-70
2021/10/09 05:06:53;;;;;;;63.30;33.13;;;2.30;99.90;;;;;;5272601;28;20219;-69
2021/10/09 05:09:25;;;;;;;60.13;31.57;;;2.30;99.90;;;;;;5271600;28;20185;-73
2021/10/09 05:11:59;;;;;;;65.07;33.97;;;2.40;99.90;;;;;;5272473;28;20203;-68
2021/10/09 05:14:31;;;;;;;57.77;31.27;;;2.30;99.90;;;;;;5272103;28;20184;-68
2021/10/09 05:17:03;;;;;;;55.17;31.03;;;2.40;99.90;;;;;;5272192;28;20212;-71
2021/10/09 05:19:35;;;;;;;55.03;29.73;;;2.40;99.90;;;;;;5273576;28;20196;-70
2021/10/09 05:22:08;;;;;;;55.30;29.40;;;2.40;99.90;;;;;;5272617;28;20568;-69
2021/10/09 05:24:42;;;;;;;51.23;27.40;;;2.50;99.90;;;;;;5270693;28;20234;-67
2021/10/09 05:27:14;;;;;;;48.30;26.50;;;2.50;99.90;;;;;;5272565;28;20539;-67
2021/10/09 05:29:47;;;;;;;42.00;23.67;;;2.50;99.90;;;;;;5273064;28;20196;-71
2021/10/09 05:32:23;;;;;;;42.23;21.90;;;2.60;99.90;;;;;;5272502;28;20200;-68
2021/10/09 05:34:55;;;;;;;40.00;21.73;;;2.60;99.90;;;;;;5272634;28;20512;-67
2021/10/09 05:37:31;;;;;;;40.87;21.13;;;2.70;99.90;;;;;;5271377;28;20204;-66
2021/10/09 05:40:04;;;;;;;35.67;19.77;;;2.70;99.90;;;;;;5270487;28;20279;-65
2021/10/09 05:42:36;;;;;;;38.23;18.93;;;2.80;99.90;;;;;;5271587;28;20218;-68
2021/10/09 05:45:10;;;;;;;36.60;20.03;;;2.90;99.90;;;;;;5271628;28;20243;-70
2021/10/09 05:47:44;;;;;;;39.37;19.93;;;2.90;99.90;;;;;;5271352;28;20217;-73
2021/10/09 05:50:17;;;;;;;37.37;21.30;;;3.00;99.90;;;;;;5270577;28;20184;-72
2021/10/09 05:55:58;;;;;;;37.17;20.37;;;3.20;99.90;;;;;;5270131;28;20218;-70
2021/10/09 05:58:48;;;;;;;35.50;19.43;;;3.30;99.90;;;;;;5271341;28;20234;-68
2021/10/09 06:49:44;;;;;;;33.75;19.67;;;16.90;99.90;;;;;;5270890;28;20184;-68
2021/10/09 07:00:49;;;;;;;39.80;23.60;;;16.90;99.90;;;;;;5270035;28;20224;-69
2021/10/09 07:03:22;;;;;;;35.85;23.42;;;17.00;99.90;;;;;;5270438;28;20230;-68
2021/10/09 07:05:56;;;;;;;37.65;24.90;;;17.20;99.90;;;;;;5268854;28;20232;-67
2021/10/09 07:08:28;;;;;;;43.80;25.47;;;17.30;99.90;;;;;;5270131;28;20199;-68
2021/10/09 07:11:01;;;;;;;40.40;25.20;;;16.90;99.90;;;;;;5269963;28;20228;-72
2021/10/09 07:13:33;;;;;;;32.13;21.13;;;16.10;99.90;;;;;;5257881;28;20280;-71
2021/10/09 07:16:05;;;;;;;29.13;18.63;;;15.30;99.90;;;;;;5248747;28;20243;-67
2021/10/09 07:18:37;;;;;;;29.00;16.83;;;14.60;99.90;;;;;;5249429;28;20205;-69
2021/10/09 07:21:09;;;;;;;27.10;16.17;;;14.00;99.90;;;;;;5247976;28;20229;-65
2021/10/09 07:23:44;;;;;;;23.97;14.43;;;13.50;99.90;;;;;;5249390;28;20235;-69
2021/10/09 07:26:16;;;;;;;27.37;16.43;;;13.10;99.90;;;;;;5248801;28;20227;-69
2021/10/09 07:28:49;;;;;;;24.23;15.40;;;12.70;99.90;;;;;;5249064;28;20538;-70
2021/10/09 07:31:21;;;;;;;41.87;23.03;;;12.40;99.90;;;;;;5248773;28;20221;-72
2021/10/09 07:33:53;;;;;;;47.67;26.63;;;12.10;99.90;;;;;;5250492;28;20181;-65
2021/10/09 07:36:27;;;;;;;48.50;26.47;;;11.80;99.90;;;;;;5249084;28;20209;-68
2021/10/09 07:38:59;;;;;;;46.57;25.20;;;11.30;99.90;;;;;;5249517;28;20200;-71
2021/10/09 07:41:31;;;;;;;43.73;25.77;;;11.10;99.90;;;;;;5248112;28;20221;-66
2021/10/09 07:44:04;;;;;;;41.40;24.10;;;10.90;99.90;;;;;;5249208;28;20530;-68
2021/10/09 07:46:36;;;;;;;40.17;23.47;;;11.00;99.90;;;;;;5248761;28;20239;-67
2021/10/09 07:49:11;;;;;;;53.90;27.63;;;10.90;99.90;;;;;;5249123;28;20511;-71
2021/10/09 07:51:43;;;;;;;46.40;25.57;;;11.00;99.90;;;;;;5249169;28;20204;-69
2021/10/09 07:54:15;;;;;;;40.80;22.00;;;11.10;99.90;;;;;;5249237;28;20197;-66
2021/10/09 07:56:47;;;;;;;43.33;23.73;;;11.20;99.90;;;;;;5248260;28;20519;-71
2021/10/09 07:59:19;;;;;;;50.17;24.27;;;11.40;99.90;;;;;;5248849;28;20201;-69
2021/10/09 08:01:54;;;;;;;35.40;18.47;;;11.40;99.90;;;;;;5249452;28;20280;-71
2021/10/09 08:04:31;;;;;;;29.93;17.43;;;11.70;99.90;;;;;;5252051;28;20276;-68
2021/10/09 08:07:06;;;;;;;21.70;13.03;;;11.90;99.90;;;;;;5252282;28;20530;-69
2021/10/09 08:09:38;;;;;;;18.83;9.83;;;12.10;99.90;;;;;;5252147;28;20200;-71
2021/10/09 08:12:09;;;;;;;15.80;9.20;;;12.30;99.90;;;;;;5252445;28;20197;-68
2021/10/09 08:14:41;;;;;;;17.13;9.40;;;12.40;99.90;;;;;;5252435;28;20523;-71
2021/10/09 08:17:15;;;;;;;14.93;8.30;;;12.50;99.90;;;;;;5251486;28;20535;-68
2021/10/09 08:19:50;;;;;;;11.70;8.13;;;12.70;99.90;;;;;;5251228;28;20216;-71
2021/10/09 08:22:27;;;;;;;12.73;8.17;;;12.80;99.90;;;;;;5252478;28;20220;-70
2021/10/09 08:36:29;;;;;;;16.37;8.33;;;13.50;99.90;;;;;;5252601;28;20234;-67
2021/10/09 08:39:03;;;;;;;17.07;9.77;;;13.60;99.90;;;;;;5252687;28;20241;-69
2021/10/09 08:41:54;;;;;;;16.03;8.60;;;13.70;99.90;;;;;;5251882;28;20236;-70
2021/10/09 08:44:27;;;;;;;11.23;6.70;;;13.80;99.90;;;;;;5250314;28;20236;-67
2021/10/09 08:46:59;;;;;;;12.27;7.07;;;13.80;99.90;;;;;;5251397;28;20200;-69
2021/10/09 08:49:33;;;;;;;13.53;6.83;;;13.80;99.90;;;;;;5251930;28;20235;-67
2021/10/09 08:52:07;;;;;;;13.77;7.57;;;13.80;99.90;;;;;;5252675;28;20205;-68
2021/10/09 08:54:43;;;;;;;10.13;5.97;;;13.90;99.90;;;;;;5256445;28;20278;-71
2021/10/09 08:57:20;;;;;;;15.13;7.97;;;13.90;99.90;;;;;;5257090;28;20461;-70
2021/10/09 08:59:58;;;;;;;12.37;7.77;;;13.90;99.90;;;;;;5251000;28;20235;-69
2021/10/09 09:02:38;;;;;;;16.67;8.53;;;13.90;99.90;;;;;;5250874;28;20295;-70
2021/10/09 09:05:40;;;;;;;14.07;8.80;;;13.80;99.90;;;;;;5250136;28;20637;-68
2021/10/09 09:08:28;;;;;;;13.63;8.20;;;13.80;99.90;;;;;;5251560;28;20521;-69
2021/10/09 09:25:30;;;;;;;13.57;6.30;;;13.90;99.90;;;;;;5250820;28;20221;-68
2021/10/09 09:33:55;;;;;;;8.83;5.20;;;13.60;99.90;;;;;;5250526;28;20596;-73
2021/10/09 09:39:07;;;;;;;10.33;4.77;;;13.50;99.90;;;;;;5250774;28;20577;-53
2021/10/09 09:41:47;;;;;;;5.83;3.87;;;13.50;99.90;;;;;;5249884;28;20614;-71
2021/10/09 09:44:26;;;;;;;7.33;4.23;;;13.40;99.90;;;;;;5250234;28;20188;-67
2021/10/09 09:47:07;;;;;;;8.03;3.93;;;13.40;99.90;;;;;;5250180;28;20243;-70
2021/10/09 09:50:00;;;;;;;7.20;3.73;;;13.40;99.90;;;;;;5250684;28;20667;-69
2021/10/09 09:52:37;;;;;;;9.10;3.60;;;13.50;99.90;;;;;;5250514;28;20225;-71
2021/10/09 09:55:11;;;;;;;5.63;3.37;;;13.50;99.90;;;;;;5249886;28;20204;-70
2021/10/09 09:57:44;;;;;;;5.87;3.50;;;13.50;99.90;;;;;;5248487;28;20239;-66
2021/10/09 10:00:16;;;;;;;8.37;4.10;;;13.60;99.90;;;;;;5241935;28;20216;-68
2021/10/09 10:02:52;;;;;;;9.90;5.30;;;13.60;99.90;;;;;;5250056;28;20229;-70
2021/10/09 10:05:28;;;;;;;7.07;4.80;;;13.60;99.90;;;;;;5249886;28;20672;-72
2021/10/09 10:08:00;;;;;;;8.10;4.07;;;13.60;99.90;;;;;;5249943;28;20249;-69
2021/10/09 10:10:32;;;;;;;8.07;4.07;;;13.50;99.90;;;;;;5249858;28;20211;-70
2021/10/09 10:13:05;;;;;;;12.03;4.67;;;13.30;99.90;;;;;;5250040;28;20233;-70
2021/10/09 10:15:37;;;;;;;8.33;4.80;;;13.30;99.90;;;;;;5250008;28;20209;-70
2021/10/09 10:18:09;;;;;;;12.60;5.80;;;13.20;99.90;;;;;;5249586;28;20276;-73
2021/10/09 10:20:49;;;;;;;7.00;4.33;;;13.20;99.90;;;;;;5249960;28;20219;-69
2021/10/09 10:23:38;;;;;;;7.10;4.03;;;13.30;99.90;;;;;;5249474;28;20232;-72
2021/10/09 10:26:31;;;;;;;6.83;4.07;;;13.10;99.90;;;;;;5247790;28;20220;-69
2021/10/09 10:29:03;;;;;;;7.70;4.60;;;13.10;99.90;;;;;;5249884;28;20252;-69
2021/10/09 10:31:36;;;;;;;12.33;5.40;;;13.00;99.90;;;;;;5249835;28;20201;-71
2021/10/09 10:34:20;;;;;;;8.73;5.63;;;13.00;99.90;;;;;;5249793;28;20228;-69
2021/10/09 10:36:52;;;;;;;12.03;5.13;;;13.20;99.90;;;;;;5248981;28;20569;-69
2021/10/09 10:39:40;;;;;;;8.83;4.93;;;13.20;99.90;;;;;;5248590;28;20259;-69
2021/10/09 10:42:29;;;;;;;9.67;4.70;;;13.30;99.90;;;;;;5248382;28;20209;-67
2021/10/09 10:57:02;;;;;;;7.37;3.97;;;13.50;99.90;;;;;;5248371;28;20221;-69
2021/10/09 10:59:52;;;;;;;10.27;4.77;;;13.60;99.90;;;;;;5248718;28;20236;-70
2021/10/09 11:02:36;;;;;;;6.00;3.93;;;13.60;99.90;;;;;;5250168;28;20188;-70
2021/10/09 11:05:13;;;;;;;7.87;3.60;;;13.70;99.90;;;;;;5249508;28;20244;-70
2021/10/09 11:07:46;;;;;;;7.13;4.37;;;13.80;99.90;;;;;;5250413;28;20196;-71
2021/10/09 11:10:22;;;;;;;7.03;3.93;;;13.90;99.90;;;;;;5249563;28;20235;-68
2021/10/09 11:12:53;;;;;;;7.30;3.33;;;14.00;99.90;;;;;;5248123;28;20523;-69
2021/10/09 11:15:28;;;;;;;8.57;3.97;;;14.10;99.90;;;;;;5248578;28;20660;-67
2021/10/09 11:18:02;;;;;;;8.30;4.40;;;14.10;99.90;;;;;;5247666;28;20570;-55
2021/10/09 11:20:37;;;;;;;5.97;3.70;;;14.00;99.90;;;;;;5239868;28;20543;-57
2021/10/09 11:23:13;;;;;;;6.57;3.90;;;14.10;99.90;;;;;;5248905;28;20616;-55
2021/10/09 11:25:49;;;;;;;7.83;4.00;;;14.10;99.90;;;;;;5248962;28;20229;-57
2021/10/09 11:28:30;;;;;;;7.37;4.37;;;14.20;99.90;;;;;;5248900;28;20201;-54
2021/10/09 11:31:07;;;;;;;10.80;4.27;;;14.30;99.90;;;;;;5248771;28;20220;-57
2021/10/09 11:33:43;;;;;;;7.80;4.10;;;14.30;99.90;;;;;;5249905;28;20224;-57
2021/10/09 11:36:15;;;;;;;9.00;3.70;;;14.30;99.90;;;;;;5250172;28;20224;-52
2021/10/09 11:38:47;;;;;;;6.43;3.33;;;14.20;99.90;;;;;;5252406;28;20205;-57
2021/10/09 11:41:23;;;;;;;6.63;3.90;;;14.20;99.90;;;;;;5254078;28;20259;-59
2021/10/09 11:55:22;;;;;;;6.97;3.50;;;14.30;99.90;;;;;;5252617;28;20207;-66
2021/10/09 11:57:55;;;;;;;5.87;3.30;;;14.30;99.90;;;;;;5252809;28;20200;-69
2021/10/09 12:00:29;;;;;;;6.87;3.27;;;14.30;99.90;;;;;;5273535;28;20544;-67
2021/10/09 12:03:24;;;;;;;6.60;3.50;;;14.40;99.90;;;;;;5264808;28;20210;-67
2021/10/09 12:06:13;;;;;;;6.07;3.40;;;14.50;99.90;;;;;;5259650;28;20255;-66
2021/10/09 12:08:54;;;;;;;7.30;3.60;;;14.60;99.90;;;;;;5232216;28;20538;-72
2021/10/09 12:11:29;;;;;;;5.00;3.60;;;14.50;99.90;;;;;;5251150;28;20214;-72
2021/10/09 12:14:03;;;;;;;6.93;3.63;;;14.50;99.90;;;;;;5257524;28;20507;-68
2021/10/09 12:16:39;;;;;;;8.03;3.07;;;14.60;99.90;;;;;;5251280;28;20631;-68
2021/10/09 12:19:12;;;;;;;4.07;2.80;;;14.50;99.90;;;;;;5250916;28;20199;-71
2021/10/09 12:21:51;;;;;;;4.77;3.10;;;14.50;99.90;;;;;;5250474;28;20273;-69
2021/10/09 12:24:26;;;;;;;7.20;3.23;;;14.60;99.90;;;;;;5257248;28;20601;-70
2021/10/09 12:27:15;;;;;;;4.50;2.87;;;14.60;99.90;;;;;;5265311;28;20524;-70
2021/10/09 12:30:09;;;;;;;4.93;3.23;;;14.70;99.90;;;;;;5254907;28;20195;-69
2021/10/09 12:32:47;;;;;;;7.83;3.70;;;14.80;99.90;;;;;;5261265;28;20236;-68
2021/10/09 12:35:27;;;;;;;4.47;2.70;;;14.60;99.90;;;;;;5267280;28;20536;-69
2021/10/09 12:38:13;;;;;;;7.17;3.50;;;14.60;99.90;;;;;;5245032;28;20225;-68
2021/10/09 12:40:49;;;;;;;6.33;3.47;;;14.50;99.90;;;;;;5263434;28;20200;-70
2021/10/09 12:43:25;;;;;;;6.93;3.50;;;14.40;99.90;;;;;;5269039;28;20223;-69
2021/10/09 12:45:57;;;;;;;6.10;3.30;;;14.40;99.90;;;;;;5256155;28;20561;-69
2021/10/09 12:48:29;;;;;;;4.67;2.70;;;14.30;99.90;;;;;;5261894;28;20216;-71
2021/10/09 12:51:01;;;;;;;4.83;2.57;;;14.20;99.90;;;;;;5250922;28;20193;-71
2021/10/09 12:53:33;;;;;;;4.17;2.40;;;14.30;99.90;;;;;;5269661;28;20228;-67
2021/10/09 12:56:05;;;;;;;3.80;2.47;;;14.30;99.90;;;;;;5265224;28;20216;-69
2021/10/09 12:58:39;;;;;;;4.83;2.20;;;14.30;99.90;;;;;;5251101;28;20259;-68
2021/10/09 13:01:11;;;;;;;3.53;2.50;;;14.30;99.40;;;;;;5251305;28;20211;-68
2021/10/09 13:03:44;;;;;;;5.43;2.80;;;14.40;99.70;;;;;;5267968;28;20235;-66
2021/10/09 13:06:16;;;;;;;6.10;2.83;;;14.50;99.90;;;;;;5257735;28;20247;-68
2021/10/09 13:08:48;;;;;;;4.37;2.43;;;15.00;99.70;;;;;;5259341;28;20303;-70
2021/10/09 13:11:25;;;;;;;5.37;2.73;;;15.70;98.60;;;;;;5267562;28;20204;-69
2021/10/09 13:13:57;;;;;;;3.37;2.50;;;16.20;98.40;;;;;;5239987;28;20224;-69
2021/10/09 13:16:29;;;;;;;3.73;2.70;;;16.50;97.40;;;;;;5250893;28;20192;-72
2021/10/09 13:19:03;;;;;;;4.53;2.87;;;16.40;97.30;;;;;;5264695;28;20694;-70
2021/10/09 13:21:38;;;;;;;7.30;3.03;;;16.00;97.50;;;;;;5255307;28;20597;-70
2021/10/09 13:24:10;;;;;;;3.40;2.37;;;15.40;97.70;;;;;;5264839;28;20262;-70
2021/10/09 13:26:42;;;;;;;5.47;3.10;;;14.90;98.20;;;;;;5250863;28;20235;-70
2021/10/09 13:29:14;;;;;;;4.67;2.70;;;14.50;98.90;;;;;;5266458;28;20203;-71
2021/10/09 13:31:45;;;;;;;7.73;3.63;;;14.50;99.90;;;;;;5266948;28;20215;-72
2021/10/09 13:34:20;;;;;;;5.20;3.30;;;14.80;99.70;;;;;;5258508;28;20212;-69
2021/10/09 13:36:52;;;;;;;4.70;3.00;;;15.20;99.30;;;;;;5258968;28;20196;-68
2021/10/09 13:39:24;;;;;;;7.50;4.07;;;15.50;99.30;;;;;;5267190;28;20501;-71
2021/10/09 13:42:00;;;;;;;6.17;3.50;;;15.50;99.00;;;;;;5255555;28;20519;-70
2021/10/09 13:44:37;;;;;;;6.73;3.00;;;15.30;99.10;;;;;;5269676;28;20202;-72
2021/10/09 13:47:09;;;;;;;6.00;2.83;;;15.00;99.10;;;;;;5255595;28;20219;-71
2021/10/09 13:49:42;;;;;;;5.33;3.10;;;14.80;99.30;;;;;;5267556;28;20220;-68
2021/10/09 13:52:14;;;;;;;5.13;2.87;;;14.60;99.90;;;;;;5258883;28;20195;-68
2021/10/09 13:54:45;;;;;;;4.73;3.00;;;14.60;99.90;;;;;;5271088;28;20208;-72
2021/10/09 13:57:20;;;;;;;5.53;3.00;;;14.40;99.90;;;;;;5254974;28;20214;-73
2021/10/09 13:59:52;;;;;;;5.47;3.00;;;14.20;99.90;;;;;;5237502;28;20531;-71
2021/10/09 14:02:24;;;;;;;6.27;2.93;;;14.00;99.90;;;;;;5262867;28;20224;-70
2021/10/09 14:04:59;;;;;;;3.87;3.00;;;13.80;99.90;;;;;;5248864;28;20607;-70
2021/10/09 14:07:32;;;;;;;5.23;2.97;;;13.70;99.90;;;;;;5265871;28;20272;-70
2021/10/09 14:10:04;;;;;;;6.37;3.00;;;13.70;99.90;;;;;;5256337;28;20479;-71
2021/10/09 14:12:36;;;;;;;6.87;3.50;;;13.60;99.90;;;;;;5268505;28;20230;-69
2021/10/09 14:15:08;;;;;;;7.40;3.97;;;13.60;99.90;;;;;;5251463;28;20250;-70
2021/10/09 14:17:40;;;;;;;6.10;3.17;;;13.60;99.90;;;;;;5264698;28;20211;-73
2021/10/09 14:20:14;;;;;;;4.47;2.53;;;13.60;99.90;;;;;;5256150;28;20632;-70
2021/10/09 14:22:46;;;;;;;4.30;2.87;;;13.50;99.90;;;;;;5261789;28;20592;-69
2021/10/09 14:25:18;;;;;;;5.33;3.10;;;13.50;99.90;;;;;;5254354;28;20204;-71
2021/10/09 14:27:50;;;;;;;4.27;2.80;;;13.50;99.90;;;;;;5266343;28;20216;-68
2021/10/09 14:30:22;;;;;;;4.57;2.97;;;13.40;99.90;;;;;;5249868;28;20201;-69
2021/10/09 14:32:54;;;;;;;4.77;2.73;;;13.40;99.90;;;;;;5249564;28;20224;-68
2021/10/09 14:35:26;;;;;;;3.93;2.67;;;13.30;99.90;;;;;;5266127;28;20196;-69
2021/10/09 14:38:02;;;;;;;4.37;2.93;;;13.30;99.90;;;;;;5254415;28;20231;-71
2021/10/09 14:40:37;;;;;;;4.10;2.70;;;13.30;99.90;;;;;;5263164;28;20242;-69
2021/10/09 14:43:10;;;;;;;4.63;2.80;;;13.20;99.90;;;;;;5270430;28;20545;-71
2021/10/09 14:45:43;;;;;;;9.90;3.70;;;13.20;99.90;;;;;;5266575;28;20201;-70
2021/10/09 14:48:24;;;;;;;6.67;3.70;;;13.20;99.90;;;;;;5259541;28;20609;-71
2021/10/09 14:51:06;;;;;;;8.57;3.33;;;13.10;99.90;;;;;;5262067;28;20230;-70
2021/10/09 15:16:04;;;;;;;5.23;3.30;;;12.90;99.90;;;;;;5257063;28;20208;-72
2021/10/09 15:19:39;;;;;;;6.10;4.17;;;12.30;99.90;;;;;;5271348;28;20601;-70
2021/10/09 15:22:14;;;;;;;8.23;4.80;;;12.20;99.90;;;;;;5253483;28;20219;-69
2021/10/09 15:24:46;;;;;;;7.97;4.47;;;12.10;99.90;;;;;;5262996;28;20195;-69
2021/10/09 15:27:18;;;;;;;6.57;4.20;;;12.00;99.90;;;;;;5269564;28;20231;-73
2021/10/09 15:29:50;;;;;;;7.47;4.70;;;11.90;99.90;;;;;;5266904;28;20228;-71
2021/10/09 15:32:22;;;;;;;6.27;4.13;;;11.80;99.90;;;;;;5253145;28;20200;-71
2021/10/09 15:34:55;;;;;;;8.33;4.57;;;11.70;99.90;;;;;;5252713;28;20229;-71
2021/10/09 15:37:29;;;;;;;6.53;4.67;;;11.60;99.90;;;;;;5253262;28;20307;-70
2021/10/09 15:40:03;;;;;;;5.90;4.33;;;11.50;99.90;;;;;;5253027;28;20232;-72
2021/10/09 15:42:34;;;;;;;8.73;5.30;;;11.40;99.90;;;;;;5257468;28;20209;-73
2021/10/09 15:45:07;;;;;;;9.77;5.13;;;11.30;99.90;;;;;;5255860;28;20236;-74
2021/10/09 15:47:39;;;;;;;9.13;4.90;;;11.10;99.90;;;;;;5252922;28;20240;-76
2021/10/09 15:50:11;;;;;;;10.83;5.40;;;11.00;99.90;;;;;;5252756;28;20229;-72
2021/10/09 15:52:43;;;;;;;8.13;5.10;;;10.90;99.90;;;;;;5252591;28;20205;-71